Time;durP1;ratioP1;P1;durP2;ratioP2;P2;SDS_P1;SDS_P2;PMS_P1;PMS_P2;Temp;Humidity;BMP_temperature;BMP_pressure;BME280_temperature;BME280_humidity;BME280_pressure;Samples;Min_cycle;Max_cycle;Signal;HPM_P1;HPM_P2
2022/02/11 08:38:08;;;;;;;54.42;34.97;;;;;;;;;;6147705;23;20084;-88
2022/02/11 08:40:35;;;;;;;48.65;32.72;;;;;;;;;;6155809;23;20015;-89
2022/02/11 08:43:01;;;;;;;51.78;33.67;;;;;;;;;;6155885;23;20092;-87
2022/02/11 08:45:27;;;;;;;54.17;34.15;;;;;;;;;;6157481;23;20012;-87
2022/02/11 08:47:53;;;;;;;58.25;35.53;;;;;;;;;;6155812;23;20005;-85
2022/02/11 08:50:19;;;;;;;52.50;33.88;;;;;;;;;;6157127;23;20494;-85
2022/02/11 08:52:45;;;;;;;49.33;34.55;;;;;;;;;;6180399;23;20020;-86
2022/02/11 08:55:10;;;;;;;53.83;35.15;;;;;;;;;;6157290;23;20401;-85
2022/02/11 08:57:44;;;;;;;54.58;35.70;;;;;;;;;;6155858;23;20089;-86
2022/02/11 09:00:11;;;;;;;57.08;35.63;;;;;;;;;;6155732;23;20005;-87
2022/02/11 09:02:36;;;;;;;48.40;34.25;;;;;;;;;;6157324;23;20483;-87
2022/02/11 09:05:02;;;;;;;49.58;32.67;;;;;;;;;;6157139;23;20069;-85
2022/02/11 09:07:27;;;;;;;47.85;35.15;;;;;;;;;;6156945;23;20302;-84
2022/02/11 09:09:53;;;;;;;50.70;33.67;;;;;;;;;;6157250;23;20013;-84
2022/02/11 09:12:18;;;;;;;55.42;35.58;;;;;;;;;;6157313;23;20362;-85
2022/02/11 09:14:44;;;;;;;49.65;33.20;;;;;;;;;;6157244;23;20321;-84
2022/02/11 09:17:09;;;;;;;50.08;34.72;;;;;;;;;;6156811;23;20310;-84
2022/02/11 09:19:34;;;;;;;47.03;33.72;;;;;;;;;;6156897;23;20009;-87
2022/02/11 09:22:00;;;;;;;48.42;33.45;;;;;;;;;;6157035;23;20005;-84
2022/02/11 09:24:25;;;;;;;53.80;34.53;;;;;;;;;;6157268;23;20013;-85
2022/02/11 09:26:51;;;;;;;49.40;33.33;;;;;;;;;;6155188;23;20052;-84
2022/02/11 09:29:17;;;;;;;52.95;33.33;;;;;;;;;;6157037;23;20005;-84
2022/02/11 09:31:42;;;;;;;44.45;31.67;;;;;;;;;;6156792;23;20002;-85
2022/02/11 09:34:12;;;;;;;47.65;33.25;;;;;;;;;;6156944;23;20052;-85
2022/02/11 09:36:39;;;;;;;46.83;32.13;;;;;;;;;;6156550;23;20010;-87
2022/02/11 09:39:07;;;;;;;52.47;33.35;;;;;;;;;;6157141;23;20081;-85
2022/02/11 09:41:34;;;;;;;54.45;36.95;;;;;;;;;;6157033;23;20007;-84
2022/02/11 09:44:00;;;;;;;51.92;35.67;;;;;;;;;;6156824;23;20433;-85
2022/02/11 09:46:37;;;;;;;56.83;36.80;;;;;;;;;;6156758;23;20006;-85
2022/02/11 09:49:04;;;;;;;50.17;35.50;;;;;;;;;;6156858;23;20008;-87
2022/02/11 09:51:30;;;;;;;57.67;36.92;;;;;;;;;;6156876;23;20010;-86
2022/02/11 09:53:55;;;;;;;61.83;38.75;;;;;;;;;;6156776;23;20434;-86
2022/02/11 09:56:21;;;;;;;65.88;41.10;;;;;;;;;;6156342;23;20306;-86
2022/02/11 09:58:50;;;;;;;56.80;39.42;;;;;;;;;;6155069;23;20476;-86
2022/02/11 10:01:19;;;;;;;61.47;40.38;;;;;;;;;;6156634;23;20026;-87
2022/02/11 10:03:44;;;;;;;60.47;39.97;;;;;;;;;;6156600;23;20421;-87
2022/02/11 10:06:10;;;;;;;55.45;38.80;;;;;;;;;;6156764;23;20004;-87
2022/02/11 10:08:37;;;;;;;56.38;38.83;;;;;;;;;;6156671;23;20009;-87
2022/02/11 10:11:06;;;;;;;55.90;37.63;;;;;;;;;;6156438;23;20024;-85
2022/02/11 10:13:34;;;;;;;46.03;33.93;;;;;;;;;;6156621;23;20013;-87
2022/02/11 10:16:11;;;;;;;48.55;32.65;;;;;;;;;;6156417;23;20013;-86
2022/02/11 10:18:43;;;;;;;52.42;34.47;;;;;;;;;;6156793;23;20020;-85
2022/02/11 10:21:20;;;;;;;49.42;33.85;;;;;;;;;;6156567;23;20005;-86
2022/02/11 10:23:47;;;;;;;51.03;33.55;;;;;;;;;;6178094;23;20010;-85
2022/02/11 10:26:15;;;;;;;55.47;34.35;;;;;;;;;;6156470;23;20036;-86
2022/02/11 10:28:45;;;;;;;56.33;35.42;;;;;;;;;;6154737;23;20009;-85
2022/02/11 10:31:23;;;;;;;55.35;38.50;;;;;;;;;;6156417;23;20061;-88
2022/02/11 10:34:04;;;;;;;65.00;42.22;;;;;;;;;;6154889;23;20435;-84
2022/02/11 10:36:36;;;;;;;66.22;44.78;;;;;;;;;;6156196;23;20032;-84
2022/02/11 10:39:13;;;;;;;66.80;43.75;;;;;;;;;;6156320;23;20487;-87
2022/02/11 10:41:46;;;;;;;65.13;45.45;;;;;;;;;;6154582;23;20072;-83
2022/02/11 10:44:14;;;;;;;72.90;46.80;;;;;;;;;;6154666;23;20500;-83
2022/02/11 10:46:48;;;;;;;73.88;47.67;;;;;;;;;;6154715;23;20424;-84
2022/02/11 10:49:16;;;;;;;72.82;47.20;;;;;;;;;;6179240;23;20389;-82
2022/02/11 10:51:49;;;;;;;77.88;49.83;;;;;;;;;;6156611;23;19998;-81
2022/02/11 10:54:25;;;;;;;77.72;50.25;;;;;;;;;;6157046;23;20484;-81
2022/02/11 10:56:52;;;;;;;80.50;52.15;;;;;;;;;;6154488;23;20080;-81
2022/02/11 10:59:28;;;;;;;80.93;51.92;;;;;;;;;;6156315;23;20010;-81
2022/02/11 11:01:56;;;;;;;77.70;51.58;;;;;;;;;;6156275;23;19998;-82
2022/02/11 11:04:21;;;;;;;83.15;53.42;;;;;;;;;;6156274;23;20310;-81
2022/02/11 11:06:47;;;;;;;81.78;52.13;;;;;;;;;;6156248;23;20061;-84
2022/02/11 11:09:15;;;;;;;86.00;52.85;;;;;;;;;;6181581;23;20436;-84
2022/02/11 11:11:43;;;;;;;86.78;52.88;;;;;;;;;;6158215;23;20335;-83
2022/02/11 11:14:12;;;;;;;82.30;52.40;;;;;;;;;;6158224;23;20006;-83
2022/02/11 11:16:38;;;;;;;82.90;50.90;;;;;;;;;;6158433;23;20006;-83
2022/02/11 11:19:03;;;;;;;80.45;50.05;;;;;;;;;;6181369;23;20417;-84
2022/02/11 11:21:29;;;;;;;77.53;50.75;;;;;;;;;;6158255;23;20001;-83
2022/02/11 11:23:57;;;;;;;75.95;51.55;;;;;;;;;;6158277;23;20053;-83
2022/02/11 11:26:38;;;;;;;74.20;47.38;;;;;;;;;;6158292;23;20443;-83
2022/02/11 11:29:07;;;;;;;68.85;47.03;;;;;;;;;;6158041;23;20005;-83
2022/02/11 11:31:32;;;;;;;67.93;46.38;;;;;;;;;;6158459;23;20422;-82
2022/02/11 11:34:16;;;;;;;73.78;50.08;;;;;;;;;;6158141;23;20002;-84
2022/02/11 11:36:59;;;;;;;71.97;47.35;;;;;;;;;;6157810;23;20465;-84
2022/02/11 11:39:25;;;;;;;65.07;45.65;;;;;;;;;;6158510;23;20429;-85
2022/02/11 11:42:10;;;;;;;70.05;46.28;;;;;;;;;;6156602;23;20006;-85
2022/02/11 11:44:54;;;;;;;67.15;46.58;;;;;;;;;;6158223;23;20010;-84
2022/02/11 11:47:33;;;;;;;73.00;49.58;;;;;;;;;;6156378;23;20056;-84
2022/02/11 11:49:59;;;;;;;;;;;;;;;;;;6159042;23;20005;-83
2022/02/11 11:52:45;;;;;;;64.65;43.85;;;;;;;;;;6157806;23;19987;-82
2022/02/11 11:55:36;;;;;;;61.47;43.65;;;;;;;;;;6181471;23;20006;-82
2022/02/11 11:58:04;;;;;;;58.25;39.60;;;;;;;;;;6158582;23;20032;-85
2022/02/11 12:00:34;;;;;;;55.13;38.20;;;;;;;;;;6157769;23;20006;-83
2022/02/11 12:02:59;;;;;;;54.50;41.03;;;;;;;;;;6157834;23;20083;-83
2022/02/11 12:05:41;;;;;;;61.38;44.80;;;;;;;;;;6157897;23;20402;-82
2022/02/11 12:08:07;;;;;;;69.50;48.40;;;;;;;;;;6157549;23;20006;-82
2022/02/11 12:10:34;;;;;;;70.75;49.70;;;;;;;;;;6157830;23;20460;-83
2022/02/11 12:13:01;;;;;;;74.57;51.75;;;;;;;;;;6157781;23;20013;-88
2022/02/11 12:15:26;;;;;;;83.10;53.92;;;;;;;;;;6157923;23;20001;-85
2022/02/11 12:17:53;;;;;;;86.10;55.15;;;;;;;;;;6157539;23;20329;-85
2022/02/11 12:20:18;;;;;;;73.18;51.45;;;;;;;;;;6155452;23;20002;-83
2022/02/11 12:27:19;;;;;;;76.55;52.38;;;;;;;;;;6157619;23;20006;-84
2022/02/11 12:28:14;;;;;;;91.30;56.95;;;;;;;;;;6157258;23;20016;-83
2022/02/11 12:30:42;;;;;;;73.72;53.22;;;;;;;;;;6157640;23;20006;-84
2022/02/11 12:33:08;;;;;;;84.47;55.63;;;;;;;;;;6157431;23;20015;-87
2022/02/11 12:35:35;;;;;;;81.03;53.15;;;;;;;;;;6157501;23;20001;-87
2022/02/11 12:38:03;;;;;;;80.60;54.92;;;;;;;;;;6157335;23;20021;-86
2022/02/11 12:40:33;;;;;;;81.97;53.47;;;;;;;;;;6157492;23;20009;-89
2022/02/11 12:43:03;;;;;;;83.95;51.53;;;;;;;;;;6157582;23;20059;-86
2022/02/11 17:25:48;;;;;;;75.07;47.40;;;;;;;;;;6096202;23;20066;-86
2022/02/11 17:28:14;;;;;;;85.03;52.88;;;;;;;;;;6127546;23;20021;-87
2022/02/11 17:30:42;;;;;;;81.55;50.78;;;;;;;;;;6127529;23;20006;-88
2022/02/11 17:33:07;;;;;;;80.22;51.05;;;;;;;;;;6127392;23;20005;-89
2022/02/11 17:35:33;;;;;;;73.70;48.33;;;;;;;;;;6101620;23;20002;-89
2022/02/11 17:37:58;;;;;;;77.70;47.95;;;;;;;;;;6127509;23;20013;-87
2022/02/11 17:40:23;;;;;;;81.35;51.13;;;;;;;;;;6127685;23;20002;-87
2022/02/11 17:42:50;;;;;;;77.22;47.08;;;;;;;;;;6101465;23;20006;-88
2022/02/11 17:45:15;;;;;;;77.72;48.90;;;;;;;;;;6105967;23;20006;-90
2022/02/11 17:47:41;;;;;;;77.47;47.60;;;;;;;;;;6112587;23;20057;-88
2022/02/11 17:50:07;;;;;;;81.75;51.33;;;;;;;;;;6136360;23;20006;-88
2022/02/11 17:52:33;;;;;;;82.05;50.05;;;;;;;;;;6128982;23;20425;-89
2022/02/11 17:54:58;;;;;;;79.35;49.13;;;;;;;;;;6101784;23;20012;-89
2022/02/11 17:57:26;;;;;;;88.75;53.20;;;;;;;;;;6112609;23;20025;-90
2022/02/11 17:59:52;;;;;;;77.00;49.03;;;;;;;;;;6103743;23;20100;-89
2022/02/11 18:02:17;;;;;;;78.57;47.55;;;;;;;;;;6127426;23;20029;-92
2022/02/11 18:04:43;;;;;;;41.92;26.05;;;;;;;;;;6127859;23;20009;-89
2022/02/11 18:07:08;;;;;;;31.83;21.50;;;;;;;;;;6129289;23;20016;-87
2022/02/11 18:09:34;;;;;;;43.03;25.90;;;;;;;;;;6128648;23;19998;-92
2022/02/11 18:11:59;;;;;;;49.90;28.55;;;;;;;;;;6101960;23;20002;-88
2022/02/11 18:14:25;;;;;;;58.97;36.10;;;;;;;;;;6127744;23;20482;-92
2022/02/11 18:16:50;;;;;;;32.63;19.85;;;;;;;;;;6101719;23;20016;-88
2022/02/11 18:19:16;;;;;;;51.80;31.83;;;;;;;;;;6101350;23;20006;-91
2022/02/11 18:21:42;;;;;;;9.68;4.65;;;;;;;;;;6105072;23;20005;-91
2022/02/11 18:24:07;;;;;;;4.57;2.67;;;;;;;;;;6101449;23;20021;-87
2022/02/11 18:26:33;;;;;;;2.05;1.70;;;;;;;;;;6127595;23;20021;-91
2022/02/11 18:28:59;;;;;;;2.03;1.83;;;;;;;;;;6127375;23;20006;-89
2022/02/11 18:31:27;;;;;;;2.00;1.80;;;;;;;;;;6125601;23;20473;-88
2022/02/11 18:33:53;;;;;;;3.05;1.23;;;;;;;;;;6125858;23;20006;-85
2022/02/11 18:36:18;;;;;;;4.65;1.83;;;;;;;;;;6127700;23;20010;-89
2022/02/11 18:38:44;;;;;;;3.38;1.40;;;;;;;;;;6125716;23;20424;-89
2022/02/11 18:41:09;;;;;;;2.30;1.20;;;;;;;;;;6126032;23;20006;-88
2022/02/11 18:43:35;;;;;;;1.40;1.10;;;;;;;;;;6125981;23;20013;-89
2022/02/11 18:46:01;;;;;;;1.58;1.00;;;;;;;;;;6126134;23;20445;-89
2022/02/11 18:48:31;;;;;;;4.20;1.15;;;;;;;;;;6125758;23;20010;-91
2022/02/11 18:50:57;;;;;;;3.20;1.05;;;;;;;;;;6125701;23;20005;-89
2022/02/11 18:53:23;;;;;;;0.73;0.73;;;;;;;;;;6125423;23;20014;-88
2022/02/11 18:55:48;;;;;;;1.27;1.10;;;;;;;;;;6129148;23;20009;-88
2022/02/11 18:58:14;;;;;;;0.90;0.70;;;;;;;;;;6126971;23;20006;-89
2022/02/11 19:00:40;;;;;;;1.85;0.70;;;;;;;;;;6127196;23;20010;-87
2022/02/11 19:03:06;;;;;;;1.20;1.10;;;;;;;;;;6126878;23;20002;-89
2022/02/11 19:05:33;;;;;;;1.02;0.70;;;;;;;;;;6126907;23;20006;-86
2022/02/11 19:07:59;;;;;;;1.02;0.82;;;;;;;;;;6125751;23;20032;-90
2022/02/11 19:10:26;;;;;;;1.58;1.38;;;;;;;;;;6125791;23;20006;-90
2022/02/11 19:12:52;;;;;;;1.00;0.85;;;;;;;;;;6127161;23;20332;-89
2022/02/11 19:15:17;;;;;;;1.10;1.00;;;;;;;;;;6127380;23;20081;-86
2022/02/11 19:17:43;;;;;;;1.35;0.80;;;;;;;;;;6128016;23;20436;-87
2022/02/11 19:20:10;;;;;;;1.10;1.00;;;;;;;;;;6127261;23;20145;-90
2022/02/11 19:22:37;;;;;;;0.90;0.90;;;;;;;;;;6127014;23;20034;-85
2022/02/11 19:25:04;;;;;;;1.40;1.30;;;;;;;;;;6127084;23;20001;-90
2022/02/11 19:27:30;;;;;;;2.58;1.02;;;;;;;;;;6127019;23;20085;-91
2022/02/11 19:29:57;;;;;;;1.88;0.90;;;;;;;;;;6128912;23;20108;-89
2022/02/11 19:32:23;;;;;;;1.23;1.13;;;;;;;;;;6128935;23;20037;-87
2022/02/11 19:34:48;;;;;;;1.10;1.00;;;;;;;;;;6129212;23;20006;-93
2022/02/11 19:37:15;;;;;;;1.23;0.90;;;;;;;;;;6129162;23;20411;-93
2022/02/11 19:39:43;;;;;;;7.28;3.20;;;;;;;;;;6129478;23;20088;-93
2022/02/11 19:42:10;;;;;;;11.98;6.90;;;;;;;;;;6127792;23;20432;-95
2022/02/11 19:44:36;;;;;;;4.00;3.70;;;;;;;;;;6129631;23;20333;-93
2022/02/11 19:47:04;;;;;;;2.15;2.05;;;;;;;;;;6128377;23;20002;-94
2022/02/11 19:49:29;;;;;;;2.88;1.63;;;;;;;;;;6129821;23;20002;-92
2022/02/11 19:51:55;;;;;;;2.53;1.48;;;;;;;;;;6127497;23;20033;-92
2022/02/11 19:54:20;;;;;;;1.80;1.40;;;;;;;;;;6127646;23;20002;-90
2022/02/11 19:56:46;;;;;;;1.83;1.08;;;;;;;;;;6127487;23;20009;-92
2022/02/11 19:59:15;;;;;;;3.00;2.80;;;;;;;;;;6127503;23;20010;-89
2022/02/11 20:01:46;;;;;;;5.13;1.42;;;;;;;;;;6127080;23;20013;-89
2022/02/11 20:04:12;;;;;;;1.70;1.20;;;;;;;;;;6126788;23;20071;-89
2022/02/11 20:06:37;;;;;;;1.35;1.20;;;;;;;;;;6128469;23;20006;-88
2022/02/11 20:09:03;;;;;;;2.97;1.33;;;;;;;;;;6127292;23;20444;-92
2022/02/11 20:11:28;;;;;;;1.95;0.90;;;;;;;;;;6127531;23;20417;-87
2022/02/11 20:13:54;;;;;;;1.10;1.00;;;;;;;;;;6128383;23;20100;-90
2022/02/11 20:16:20;;;;;;;1.63;1.02;;;;;;;;;;6128581;23;20065;-87
2022/02/11 20:18:48;;;;;;;1.02;0.93;;;;;;;;;;6129559;23;20354;-87
2022/02/11 20:21:13;;;;;;;1.45;1.13;;;;;;;;;;6129068;23;20060;-91
2022/02/11 20:23:39;;;;;;;1.15;0.90;;;;;;;;;;6129040;23;20024;-86
2022/02/11 20:26:04;;;;;;;1.13;0.90;;;;;;;;;;6128633;23;20014;-91
2022/02/11 20:28:32;;;;;;;1.20;1.10;;;;;;;;;;6128306;23;20013;-88
2022/02/11 20:30:57;;;;;;;1.80;1.48;;;;;;;;;;6129051;23;20002;-93
2022/02/11 20:33:22;;;;;;;2.33;1.08;;;;;;;;;;6133557;23;20041;-86
2022/02/11 20:35:48;;;;;;;2.80;1.10;;;;;;;;;;6136140;23;20052;-92
2022/02/11 20:38:14;;;;;;;1.67;1.23;;;;;;;;;;6135438;23;20040;-90
2022/02/11 20:40:40;;;;;;;1.02;0.98;;;;;;;;;;6136640;23;20006;-86
2022/02/11 20:43:05;;;;;;;2.40;2.08;;;;;;;;;;6134822;23;20012;-87
2022/02/11 20:45:31;;;;;;;2.83;1.88;;;;;;;;;;6128429;23;20042;-84
2022/02/11 20:47:56;;;;;;;4.97;3.40;;;;;;;;;;6128118;23;20434;-86
2022/02/11 20:50:36;;;;;;;16.38;12.10;;;;;;;;;;6128881;23;20002;-85
2022/02/11 20:53:05;;;;;;;3.40;1.85;;;;;;;;;;6127217;23;20010;-91
2022/02/11 20:55:30;;;;;;;6.15;4.55;;;;;;;;;;6128413;23;20006;-86
2022/02/11 20:57:56;;;;;;;1.98;1.45;;;;;;;;;;6128485;23;20016;-90
2022/02/11 21:00:22;;;;;;;4.32;2.85;;;;;;;;;;6128214;23;20006;-86
2022/02/11 21:02:48;;;;;;;13.20;6.97;;;;;;;;;;6127888;23;20002;-90
2022/02/11 21:05:13;;;;;;;4.80;2.75;;;;;;;;;;6128119;23;20006;-90
2022/02/11 21:07:40;;;;;;;35.90;15.68;;;;;;;;;;6126221;23;20096;-86
2022/02/11 21:10:06;;;;;;;26.15;11.02;;;;;;;;;;6127776;23;20002;-86
2022/02/11 21:12:32;;;;;;;4.25;2.20;;;;;;;;;;6127831;23;20002;-91
2022/02/11 21:14:58;;;;;;;48.20;17.77;;;;;;;;;;6127991;23;20048;-92
2022/02/11 21:17:24;;;;;;;21.35;9.10;;;;;;;;;;6128327;23;20333;-92
2022/02/11 21:19:49;;;;;;;37.97;14.07;;;;;;;;;;6128086;23;20006;-88
2022/02/11 21:22:15;;;;;;;312.20;113.40;;;;;;;;;;6126683;23;20009;-89
2022/02/11 21:24:40;;;;;;;58.20;22.70;;;;;;;;;;6127941;23;20006;-86
2022/02/11 21:27:06;;;;;;;8.63;5.40;;;;;;;;;;6127695;23;20013;-86
2022/02/11 21:29:32;;;;;;;1.10;1.00;;;;;;;;;;6126325;23;20062;-91
2022/02/11 21:32:02;;;;;;;2.33;1.90;;;;;;;;;;6127639;23;20005;-92
2022/02/11 21:34:29;;;;;;;1.92;1.70;;;;;;;;;;6126257;23;20010;-87
2022/02/11 21:36:55;;;;;;;2.10;1.48;;;;;;;;;;6128496;23;20006;-88
2022/02/11 21:39:20;;;;;;;2.08;1.30;;;;;;;;;;6127605;23;20002;-87
2022/02/11 21:41:46;;;;;;;0.90;0.80;;;;;;;;;;6126258;23;20009;-88
2022/02/11 21:44:12;;;;;;;1.67;1.58;;;;;;;;;;6128091;23;20005;-87
2022/02/11 21:46:37;;;;;;;1.20;1.10;;;;;;;;;;6127959;23;20310;-87
2022/02/11 21:49:07;;;;;;;1.70;1.60;;;;;;;;;;6128099;23;20025;-89
2022/02/11 21:51:33;;;;;;;1.77;0.82;;;;;;;;;;6126345;23;20006;-89
2022/02/11 21:53:59;;;;;;;1.38;1.27;;;;;;;;;;6128106;23;20036;-88
2022/02/11 21:56:24;;;;;;;1.10;0.90;;;;;;;;;;6126521;23;20006;-92
2022/02/11 21:58:51;;;;;;;1.13;0.73;;;;;;;;;;6127950;23;20439;-90
2022/02/11 22:01:16;;;;;;;2.85;2.65;;;;;;;;;;6126465;23;20422;-86
2022/02/11 22:03:45;;;;;;;2.42;2.10;;;;;;;;;;6127733;23;20009;-86
2022/02/11 22:06:13;;;;;;;1.40;1.00;;;;;;;;;;6126373;23;20018;-87
2022/02/11 22:08:39;;;;;;;1.50;1.40;;;;;;;;;;6126346;23;20006;-90
2022/02/11 22:11:04;;;;;;;1.05;1.05;;;;;;;;;;6127814;23;20001;-86
2022/02/11 22:13:30;;;;;;;0.80;0.80;;;;;;;;;;6127361;23;20065;-86
2022/02/11 22:15:56;;;;;;;1.38;1.10;;;;;;;;;;6127508;23;20013;-85
2022/02/11 22:18:23;;;;;;;1.30;1.20;;;;;;;;;;6127634;23;20365;-91
2022/02/11 22:20:48;;;;;;;3.03;2.83;;;;;;;;;;6127631;23;20339;-91
2022/02/11 22:23:14;;;;;;;1.75;1.00;;;;;;;;;;6125722;23;20002;-89
2022/02/11 22:25:40;;;;;;;2.42;2.05;;;;;;;;;;6125762;23;20021;-89
2022/02/11 22:28:06;;;;;;;1.38;1.20;;;;;;;;;;6127756;23;20033;-89
2022/02/11 22:30:32;;;;;;;2.15;1.80;;;;;;;;;;6127279;23;19998;-87
2022/02/11 22:32:58;;;;;;;1.20;1.00;;;;;;;;;;6127147;23;20017;-92
2022/02/11 22:35:23;;;;;;;0.93;0.90;;;;;;;;;;6127324;23;20327;-94
2022/02/11 22:37:49;;;;;;;1.48;1.30;;;;;;;;;;6127656;23;20100;-87
2022/02/11 22:40:15;;;;;;;0.77;0.77;;;;;;;;;;6127650;23;20377;-87
2022/02/11 22:42:41;;;;;;;0.85;0.77;;;;;;;;;;6125776;23;20037;-86
2022/02/11 22:45:12;;;;;;;1.85;1.20;;;;;;;;;;6125699;23;20009;-93
2022/02/11 22:47:38;;;;;;;1.35;1.20;;;;;;;;;;6125755;23;20005;-87
2022/02/11 22:55:33;;;;;;;1.20;1.02;;;;;;;;;;6127161;23;20341;-85
2022/02/11 22:57:59;;;;;;;2.13;1.60;;;;;;;;;;6127178;23;20077;-93
2022/02/11 23:00:37;;;;;;;0.82;0.82;;;;;;;;;;6127129;23;20060;-89
2022/02/11 23:03:03;;;;;;;1.40;1.30;;;;;;;;;;6127684;23;20009;-92
2022/02/11 23:10:57;;;;;;;1.17;1.08;;;;;;;;;;6129332;23;20065;-86
2022/02/11 23:13:23;;;;;;;0.80;0.80;;;;;;;;;;6128840;23;20148;-93
2022/02/11 23:15:49;;;;;;;1.20;1.10;;;;;;;;;;6129190;23;20006;-88
